Terminal Aerodrome Forecast
Issued by NWS Charleston, WV

Current Version | Previous Version | Graphics & Text | Print | Product List | Glossary On
Versions: 1 2 3 4 5 6 7 8 9 10 11 12 13 14 15 16 17 18 19 20 21 22 23
016
FTUS41 KRLX 010256 AAA
TAFPKB
TAF AMD
KPKB 010256Z 0103/0124 27010KT P6SM SCT025 SCT040
     FM010900 26007KT P6SM BKN025=

USA.gov is the U.S. government's official web portal to all federal, state and local government web resources and services.